sensor_id;sensor_type;location;lat;lon;timestamp;temperature;humidity
31263;DHT22;17892;52.080;9.006;2023-12-20T00:01:35;9.00;99.90
31263;DHT22;17892;52.080;9.006;2023-12-20T00:04:01;9.00;99.90
31263;DHT22;17892;52.080;9.006;2023-12-20T00:06:27;9.00;99.90
31263;DHT22;17892;52.080;9.006;2023-12-20T00:08:53;8.90;99.90
31263;DHT22;17892;52.080;9.006;2023-12-20T00:11:19;8.90;99.90
31263;DHT22;17892;52.080;9.006;2023-12-20T00:13:44;8.90;99.90
31263;DHT22;17892;52.080;9.006;2023-12-20T00:16:10;8.90;99.90
31263;DHT22;17892;52.080;9.006;2023-12-20T00:18:36;8.80;99.90
31263;DHT22;17892;52.080;9.006;2023-12-20T00:21:01;8.80;99.90
31263;DHT22;17892;52.080;9.006;2023-12-20T00:23:27;8.80;99.90
31263;DHT22;17892;52.080;9.006;2023-12-20T00:25:53;8.70;99.90
31263;DHT22;17892;52.080;9.006;2023-12-20T00:28:18;8.70;99.90
31263;DHT22;17892;52.080;9.006;2023-12-20T00:30:44;8.60;99.90
31263;DHT22;17892;52.080;9.006;2023-12-20T00:33:10;8.60;99.90
31263;DHT22;17892;52.080;9.006;2023-12-20T00:35:35;8.60;99.90
31263;DHT22;17892;52.080;9.006;2023-12-20T00:38:01;8.60;99.90
31263;DHT22;17892;52.080;9.006;2023-12-20T00:40:27;8.50;99.90
31263;DHT22;17892;52.080;9.006;2023-12-20T00:42:53;8.50;99.90
31263;DHT22;17892;52.080;9.006;2023-12-20T00:45:18;8.50;99.90
31263;DHT22;17892;52.080;9.006;2023-12-20T00:47:45;8.40;99.90
31263;DHT22;17892;52.080;9.006;2023-12-20T00:50:10;8.60;99.90
31263;DHT22;17892;52.080;9.006;2023-12-20T00:52:36;8.40;99.90
31263;DHT22;17892;52.080;9.006;2023-12-20T00:55:02;8.40;99.90
31263;DHT22;17892;52.080;9.006;2023-12-20T00:57:29;8.40;99.90
31263;DHT22;17892;52.080;9.006;2023-12-20T00:59:54;8.40;99.90
31263;DHT22;17892;52.080;9.006;2023-12-20T01:02:20;8.40;99.90
31263;DHT22;17892;52.080;9.006;2023-12-20T01:04:46;8.40;99.90
31263;DHT22;17892;52.080;9.006;2023-12-20T01:07:11;8.40;99.90
31263;DHT22;17892;52.080;9.006;2023-12-20T01:09:37;8.40;99.90
31263;DHT22;17892;52.080;9.006;2023-12-20T01:12:03;8.40;99.90
31263;DHT22;17892;52.080;9.006;2023-12-20T01:14:29;8.40;99.90
31263;DHT22;17892;52.080;9.006;2023-12-20T01:16:55;8.40;99.90
31263;DHT22;17892;52.080;9.006;2023-12-20T01:19:20;8.40;99.90
31263;DHT22;17892;52.080;9.006;2023-12-20T01:21:46;8.40;99.90
31263;DHT22;17892;52.080;9.006;2023-12-20T01:24:12;8.40;99.90
31263;DHT22;17892;52.080;9.006;2023-12-20T01:26:38;8.40;99.90
31263;DHT22;17892;52.080;9.006;2023-12-20T01:29:03;8.40;99.90
31263;DHT22;17892;52.080;9.006;2023-12-20T01:31:29;8.40;99.90
31263;DHT22;17892;52.080;9.006;2023-12-20T01:33:55;8.30;99.90
31263;DHT22;17892;52.080;9.006;2023-12-20T01:36:21;8.40;99.90
31263;DHT22;17892;52.080;9.006;2023-12-20T01:38:46;8.30;99.90
31263;DHT22;17892;52.080;9.006;2023-12-20T01:41:12;8.30;99.90
31263;DHT22;17892;52.080;9.006;2023-12-20T01:43:38;8.30;99.90
31263;DHT22;17892;52.080;9.006;2023-12-20T01:46:04;8.30;99.90
31263;DHT22;17892;52.080;9.006;2023-12-20T01:48:30;8.30;99.90
31263;DHT22;17892;52.080;9.006;2023-12-20T01:50:58;8.20;99.90
31263;DHT22;17892;52.080;9.006;2023-12-20T01:53:25;8.20;99.90
31263;DHT22;17892;52.080;9.006;2023-12-20T01:55:54;8.20;99.90
31263;DHT22;17892;52.080;9.006;2023-12-20T01:58:21;8.20;99.90
31263;DHT22;17892;52.080;9.006;2023-12-20T02:00:49;8.20;99.90
31263;DHT22;17892;52.080;9.006;2023-12-20T02:03:15;8.20;99.90
31263;DHT22;17892;52.080;9.006;2023-12-20T02:05:42;8.20;99.90
31263;DHT22;17892;52.080;9.006;2023-12-20T02:08:08;8.20;99.90
31263;DHT22;17892;52.080;9.006;2023-12-20T02:10:34;8.20;99.90
31263;DHT22;17892;52.080;9.006;2023-12-20T02:12:59;8.20;99.90
31263;DHT22;17892;52.080;9.006;2023-12-20T02:15:25;8.10;99.90
31263;DHT22;17892;52.080;9.006;2023-12-20T02:17:51;8.20;99.90
31263;DHT22;17892;52.080;9.006;2023-12-20T02:20:17;8.10;99.90
31263;DHT22;17892;52.080;9.006;2023-12-20T02:22:43;8.10;99.90
31263;DHT22;17892;52.080;9.006;2023-12-20T02:25:08;8.10;99.90
31263;DHT22;17892;52.080;9.006;2023-12-20T02:27:35;8.10;99.90
31263;DHT22;17892;52.080;9.006;2023-12-20T02:30:00;8.10;99.90
31263;DHT22;17892;52.080;9.006;2023-12-20T02:32:26;8.00;99.90
31263;DHT22;17892;52.080;9.006;2023-12-20T02:34:53;8.00;99.90
31263;DHT22;17892;52.080;9.006;2023-12-20T02:37:20;8.00;99.90
31263;DHT22;17892;52.080;9.006;2023-12-20T02:39:45;8.00;99.90
31263;DHT22;17892;52.080;9.006;2023-12-20T02:42:11;8.00;99.90
31263;DHT22;17892;52.080;9.006;2023-12-20T02:44:36;8.00;99.90
31263;DHT22;17892;52.080;9.006;2023-12-20T02:47:03;8.00;99.90
31263;DHT22;17892;52.080;9.006;2023-12-20T02:49:28;8.00;99.90
31263;DHT22;17892;52.080;9.006;2023-12-20T02:51:54;8.00;99.90
31263;DHT22;17892;52.080;9.006;2023-12-20T02:54:20;8.00;99.90
31263;DHT22;17892;52.080;9.006;2023-12-20T02:56:45;8.00;99.90
31263;DHT22;17892;52.080;9.006;2023-12-20T02:59:11;7.90;99.90
31263;DHT22;17892;52.080;9.006;2023-12-20T03:01:46;7.90;99.90
31263;DHT22;17892;52.080;9.006;2023-12-20T03:04:12;7.90;99.90
31263;DHT22;17892;52.080;9.006;2023-12-20T03:06:38;7.80;99.90
31263;DHT22;17892;52.080;9.006;2023-12-20T03:09:04;7.80;99.90
31263;DHT22;17892;52.080;9.006;2023-12-20T03:11:30;7.80;99.90
31263;DHT22;17892;52.080;9.006;2023-12-20T03:13:56;7.70;99.90
31263;DHT22;17892;52.080;9.006;2023-12-20T03:16:22;7.60;99.90
31263;DHT22;17892;52.080;9.006;2023-12-20T03:18:48;7.60;99.90
31263;DHT22;17892;52.080;9.006;2023-12-20T03:21:14;7.50;99.90
31263;DHT22;17892;52.080;9.006;2023-12-20T03:23:40;7.50;99.90
31263;DHT22;17892;52.080;9.006;2023-12-20T03:26:09;7.50;99.90
31263;DHT22;17892;52.080;9.006;2023-12-20T03:28:36;7.50;99.90
31263;DHT22;17892;52.080;9.006;2023-12-20T03:31:02;7.50;99.90
31263;DHT22;17892;52.080;9.006;2023-12-20T03:33:29;7.50;99.90
31263;DHT22;17892;52.080;9.006;2023-12-20T03:35:55;7.50;99.90
31263;DHT22;17892;52.080;9.006;2023-12-20T03:38:21;7.50;99.90
31263;DHT22;17892;52.080;9.006;2023-12-20T03:40:49;7.60;99.90
31263;DHT22;17892;52.080;9.006;2023-12-20T03:43:15;7.60;99.90
31263;DHT22;17892;52.080;9.006;2023-12-20T03:45:42;7.60;99.90
31263;DHT22;17892;52.080;9.006;2023-12-20T03:48:08;7.60;99.90
31263;DHT22;17892;52.080;9.006;2023-12-20T03:50:34;7.70;99.90
31263;DHT22;17892;52.080;9.006;2023-12-20T03:53:01;7.70;99.90
31263;DHT22;17892;52.080;9.006;2023-12-20T03:55:26;7.70;99.90
31263;DHT22;17892;52.080;9.006;2023-12-20T03:57:52;7.70;99.90
31263;DHT22;17892;52.080;9.006;2023-12-20T04:00:18;7.70;99.90
31263;DHT22;17892;52.080;9.006;2023-12-20T04:02:43;7.70;99.90
31263;DHT22;17892;52.080;9.006;2023-12-20T04:05:10;7.70;99.90
31263;DHT22;17892;52.080;9.006;2023-12-20T04:07:36;7.80;99.90
31263;DHT22;17892;52.080;9.006;2023-12-20T04:10:02;7.80;99.90
31263;DHT22;17892;52.080;9.006;2023-12-20T04:12:29;7.80;99.90
31263;DHT22;17892;52.080;9.006;2023-12-20T04:14:55;7.80;99.90
31263;DHT22;17892;52.080;9.006;2023-12-20T04:17:21;7.80;99.90
31263;DHT22;17892;52.080;9.006;2023-12-20T04:19:48;7.80;99.90
31263;DHT22;17892;52.080;9.006;2023-12-20T04:22:14;7.80;99.90
31263;DHT22;17892;52.080;9.006;2023-12-20T04:24:41;7.80;99.90
31263;DHT22;17892;52.080;9.006;2023-12-20T04:27:08;7.80;99.90
31263;DHT22;17892;52.080;9.006;2023-12-20T04:29:34;7.80;99.90
31263;DHT22;17892;52.080;9.006;2023-12-20T04:32:00;7.80;99.90
31263;DHT22;17892;52.080;9.006;2023-12-20T04:34:26;7.80;99.90
31263;DHT22;17892;52.080;9.006;2023-12-20T04:36:52;7.90;99.90
31263;DHT22;17892;52.080;9.006;2023-12-20T04:39:18;7.80;99.90
31263;DHT22;17892;52.080;9.006;2023-12-20T04:41:43;7.90;99.90
31263;DHT22;17892;52.080;9.006;2023-12-20T04:44:09;7.80;99.90
31263;DHT22;17892;52.080;9.006;2023-12-20T04:46:35;7.80;99.90
31263;DHT22;17892;52.080;9.006;2023-12-20T04:49:01;7.80;99.90
31263;DHT22;17892;52.080;9.006;2023-12-20T04:51:27;7.80;99.90
31263;DHT22;17892;52.080;9.006;2023-12-20T04:53:52;7.80;99.90
31263;DHT22;17892;52.080;9.006;2023-12-20T04:56:18;7.80;99.90
31263;DHT22;17892;52.080;9.006;2023-12-20T04:58:44;7.90;99.90
31263;DHT22;17892;52.080;9.006;2023-12-20T05:01:09;7.90;99.90
31263;DHT22;17892;52.080;9.006;2023-12-20T05:03:35;7.80;99.90
31263;DHT22;17892;52.080;9.006;2023-12-20T05:06:01;7.90;99.90
31263;DHT22;17892;52.080;9.006;2023-12-20T05:08:27;7.90;99.90
31263;DHT22;17892;52.080;9.006;2023-12-20T05:10:56;7.90;99.90
31263;DHT22;17892;52.080;9.006;2023-12-20T05:13:22;7.90;99.90
31263;DHT22;17892;52.080;9.006;2023-12-20T05:15:48;7.90;99.90
31263;DHT22;17892;52.080;9.006;2023-12-20T05:18:14;7.90;99.90
31263;DHT22;17892;52.080;9.006;2023-12-20T05:20:40;7.90;99.90
31263;DHT22;17892;52.080;9.006;2023-12-20T05:23:06;7.90;99.90
31263;DHT22;17892;52.080;9.006;2023-12-20T05:25:32;7.80;99.90
31263;DHT22;17892;52.080;9.006;2023-12-20T05:27:57;7.80;99.90
31263;DHT22;17892;52.080;9.006;2023-12-20T05:30:23;7.80;99.90
31263;DHT22;17892;52.080;9.006;2023-12-20T05:32:49;7.90;99.90
31263;DHT22;17892;52.080;9.006;2023-12-20T05:35:14;7.80;99.90
31263;DHT22;17892;52.080;9.006;2023-12-20T05:37:41;7.80;99.90
31263;DHT22;17892;52.080;9.006;2023-12-20T05:40:07;7.80;99.90
31263;DHT22;17892;52.080;9.006;2023-12-20T05:42:37;7.80;99.90
31263;DHT22;17892;52.080;9.006;2023-12-20T05:45:03;7.80;99.90
31263;DHT22;17892;52.080;9.006;2023-12-20T05:47:30;7.70;99.90
31263;DHT22;17892;52.080;9.006;2023-12-20T05:49:55;7.70;99.90
31263;DHT22;17892;52.080;9.006;2023-12-20T05:52:21;7.70;99.90
31263;DHT22;17892;52.080;9.006;2023-12-20T05:54:47;7.60;99.90
31263;DHT22;17892;52.080;9.006;2023-12-20T05:57:13;7.70;99.90
31263;DHT22;17892;52.080;9.006;2023-12-20T05:59:38;7.60;99.90
31263;DHT22;17892;52.080;9.006;2023-12-20T06:02:05;7.60;99.90
31263;DHT22;17892;52.080;9.006;2023-12-20T06:04:30;7.60;99.90
31263;DHT22;17892;52.080;9.006;2023-12-20T06:06:56;7.60;99.90
31263;DHT22;17892;52.080;9.006;2023-12-20T06:09:22;7.60;99.90
31263;DHT22;17892;52.080;9.006;2023-12-20T06:11:48;7.60;99.90
31263;DHT22;17892;52.080;9.006;2023-12-20T06:14:14;7.50;99.90
31263;DHT22;17892;52.080;9.006;2023-12-20T06:16:40;7.50;99.90
31263;DHT22;17892;52.080;9.006;2023-12-20T06:19:05;7.50;99.90
31263;DHT22;17892;52.080;9.006;2023-12-20T06:21:31;7.50;99.90
31263;DHT22;17892;52.080;9.006;2023-12-20T06:23:59;7.50;99.90
31263;DHT22;17892;52.080;9.006;2023-12-20T06:26:25;7.40;99.90
31263;DHT22;17892;52.080;9.006;2023-12-20T06:28:50;7.40;99.90
31263;DHT22;17892;52.080;9.006;2023-12-20T06:31:16;7.40;99.90
31263;DHT22;17892;52.080;9.006;2023-12-20T06:33:43;7.40;99.90
31263;DHT22;17892;52.080;9.006;2023-12-20T06:36:11;7.30;99.90
31263;DHT22;17892;52.080;9.006;2023-12-20T06:38:38;7.40;99.90
31263;DHT22;17892;52.080;9.006;2023-12-20T06:41:05;7.40;99.90
31263;DHT22;17892;52.080;9.006;2023-12-20T06:43:31;7.40;99.90
31263;DHT22;17892;52.080;9.006;2023-12-20T06:45:58;7.30;99.90
31263;DHT22;17892;52.080;9.006;2023-12-20T06:48:24;7.30;99.90
31263;DHT22;17892;52.080;9.006;2023-12-20T06:50:49;7.40;99.90
31263;DHT22;17892;52.080;9.006;2023-12-20T06:53:15;7.40;99.90
31263;DHT22;17892;52.080;9.006;2023-12-20T06:55:41;7.40;99.90
31263;DHT22;17892;52.080;9.006;2023-12-20T06:58:07;7.40;99.90
31263;DHT22;17892;52.080;9.006;2023-12-20T07:00:32;7.50;99.90
31263;DHT22;17892;52.080;9.006;2023-12-20T07:02:59;7.50;99.90
31263;DHT22;17892;52.080;9.006;2023-12-20T07:05:24;7.50;99.90
31263;DHT22;17892;52.080;9.006;2023-12-20T07:07:50;7.50;99.90
31263;DHT22;17892;52.080;9.006;2023-12-20T07:10:16;7.50;99.90
31263;DHT22;17892;52.080;9.006;2023-12-20T07:12:41;7.50;99.90
31263;DHT22;17892;52.080;9.006;2023-12-20T07:15:08;7.50;99.90
31263;DHT22;17892;52.080;9.006;2023-12-20T07:17:34;7.50;99.90
31263;DHT22;17892;52.080;9.006;2023-12-20T07:20:00;7.50;99.90
31263;DHT22;17892;52.080;9.006;2023-12-20T07:22:29;7.50;99.90
31263;DHT22;17892;52.080;9.006;2023-12-20T07:24:57;7.50;99.90
31263;DHT22;17892;52.080;9.006;2023-12-20T07:27:24;7.50;99.90
31263;DHT22;17892;52.080;9.006;2023-12-20T07:29:49;7.50;99.90
31263;DHT22;17892;52.080;9.006;2023-12-20T07:32:15;7.50;99.90
31263;DHT22;17892;52.080;9.006;2023-12-20T07:34:41;7.50;99.90
31263;DHT22;17892;52.080;9.006;2023-12-20T07:37:06;7.50;99.90
31263;DHT22;17892;52.080;9.006;2023-12-20T07:39:35;7.50;99.90
31263;DHT22;17892;52.080;9.006;2023-12-20T07:42:01;7.40;99.90
31263;DHT22;17892;52.080;9.006;2023-12-20T07:44:27;7.50;99.90
31263;DHT22;17892;52.080;9.006;2023-12-20T07:46:52;7.50;99.90
31263;DHT22;17892;52.080;9.006;2023-12-20T07:49:19;7.50;99.90
31263;DHT22;17892;52.080;9.006;2023-12-20T07:51:44;7.50;99.90
31263;DHT22;17892;52.080;9.006;2023-12-20T07:54:10;7.50;99.90
31263;DHT22;17892;52.080;9.006;2023-12-20T07:56:36;7.40;99.90
31263;DHT22;17892;52.080;9.006;2023-12-20T07:59:01;7.40;99.90
31263;DHT22;17892;52.080;9.006;2023-12-20T08:01:27;7.40;99.90
31263;DHT22;17892;52.080;9.006;2023-12-20T08:03:53;7.50;99.90
31263;DHT22;17892;52.080;9.006;2023-12-20T08:06:18;7.50;99.90
31263;DHT22;17892;52.080;9.006;2023-12-20T08:08:44;7.40;99.90
31263;DHT22;17892;52.080;9.006;2023-12-20T08:11:10;7.40;99.90
31263;DHT22;17892;52.080;9.006;2023-12-20T08:13:36;7.40;99.90
31263;DHT22;17892;52.080;9.006;2023-12-20T08:16:02;7.40;99.90
31263;DHT22;17892;52.080;9.006;2023-12-20T08:18:28;7.50;99.90
31263;DHT22;17892;52.080;9.006;2023-12-20T08:20:54;7.40;99.90
31263;DHT22;17892;52.080;9.006;2023-12-20T08:23:20;7.40;99.90
31263;DHT22;17892;52.080;9.006;2023-12-20T08:25:46;7.40;99.90
31263;DHT22;17892;52.080;9.006;2023-12-20T08:28:13;7.40;99.90
31263;DHT22;17892;52.080;9.006;2023-12-20T08:30:39;7.40;99.90
31263;DHT22;17892;52.080;9.006;2023-12-20T08:33:05;7.40;99.90
31263;DHT22;17892;52.080;9.006;2023-12-20T08:35:33;7.40;99.90
31263;DHT22;17892;52.080;9.006;2023-12-20T08:37:58;7.40;99.90
31263;DHT22;17892;52.080;9.006;2023-12-20T08:40:24;7.50;99.90
31263;DHT22;17892;52.080;9.006;2023-12-20T08:42:50;7.40;99.90
31263;DHT22;17892;52.080;9.006;2023-12-20T08:45:15;7.50;99.90
31263;DHT22;17892;52.080;9.006;2023-12-20T08:47:41;7.50;99.90
31263;DHT22;17892;52.080;9.006;2023-12-20T08:50:08;7.50;99.90
31263;DHT22;17892;52.080;9.006;2023-12-20T08:52:33;7.50;99.90
31263;DHT22;17892;52.080;9.006;2023-12-20T08:54:59;7.50;99.90
31263;DHT22;17892;52.080;9.006;2023-12-20T08:57:24;7.50;99.90
31263;DHT22;17892;52.080;9.006;2023-12-20T08:59:50;7.50;99.90
31263;DHT22;17892;52.080;9.006;2023-12-20T09:02:16;7.50;99.90
31263;DHT22;17892;52.080;9.006;2023-12-20T09:04:42;7.50;99.90
31263;DHT22;17892;52.080;9.006;2023-12-20T09:07:27;7.60;99.90
31263;DHT22;17892;52.080;9.006;2023-12-20T09:09:55;7.60;99.90
31263;DHT22;17892;52.080;9.006;2023-12-20T09:12:21;7.60;99.90
31263;DHT22;17892;52.080;9.006;2023-12-20T09:14:49;7.60;99.90
31263;DHT22;17892;52.080;9.006;2023-12-20T09:17:16;7.60;99.90
31263;DHT22;17892;52.080;9.006;2023-12-20T09:19:43;7.60;99.90
31263;DHT22;17892;52.080;9.006;2023-12-20T09:22:12;7.60;99.90
31263;DHT22;17892;52.080;9.006;2023-12-20T09:24:38;7.60;99.90
31263;DHT22;17892;52.080;9.006;2023-12-20T09:27:05;7.60;99.90
31263;DHT22;17892;52.080;9.006;2023-12-20T09:29:31;7.60;99.90
31263;DHT22;17892;52.080;9.006;2023-12-20T09:31:57;7.60;99.90
31263;DHT22;17892;52.080;9.006;2023-12-20T09:34:23;7.60;99.90
31263;DHT22;17892;52.080;9.006;2023-12-20T09:36:51;7.60;99.90
31263;DHT22;17892;52.080;9.006;2023-12-20T09:39:19;7.60;99.90
31263;DHT22;17892;52.080;9.006;2023-12-20T09:41:51;7.60;99.90
31263;DHT22;17892;52.080;9.006;2023-12-20T09:44:31;7.70;99.90
31263;DHT22;17892;52.080;9.006;2023-12-20T09:46:58;7.60;99.90
31263;DHT22;17892;52.080;9.006;2023-12-20T09:49:25;7.60;99.90
31263;DHT22;17892;52.080;9.006;2023-12-20T09:51:54;7.60;99.90
31263;DHT22;17892;52.080;9.006;2023-12-20T09:54:21;7.60;99.90
31263;DHT22;17892;52.080;9.006;2023-12-20T09:56:47;7.60;99.90
31263;DHT22;17892;52.080;9.006;2023-12-20T09:59:13;7.60;99.90
31263;DHT22;17892;52.080;9.006;2023-12-20T10:01:40;7.60;99.90
31263;DHT22;17892;52.080;9.006;2023-12-20T10:04:09;7.60;99.90
31263;DHT22;17892;52.080;9.006;2023-12-20T10:06:46;7.60;99.90
31263;DHT22;17892;52.080;9.006;2023-12-20T10:09:13;7.60;99.90
31263;DHT22;17892;52.080;9.006;2023-12-20T10:11:39;7.60;99.90
31263;DHT22;17892;52.080;9.006;2023-12-20T10:14:05;7.60;99.90
31263;DHT22;17892;52.080;9.006;2023-12-20T10:16:33;7.60;99.90
31263;DHT22;17892;52.080;9.006;2023-12-20T10:18:59;7.60;99.90
31263;DHT22;17892;52.080;9.006;2023-12-20T10:21:29;7.70;99.90
31263;DHT22;17892;52.080;9.006;2023-12-20T10:23:57;7.70;99.90
31263;DHT22;17892;52.080;9.006;2023-12-20T10:26:26;7.80;99.90
31263;DHT22;17892;52.080;9.006;2023-12-20T10:28:56;7.80;99.90
31263;DHT22;17892;52.080;9.006;2023-12-20T10:31:33;7.80;99.90
31263;DHT22;17892;52.080;9.006;2023-12-20T10:34:00;7.80;99.90
31263;DHT22;17892;52.080;9.006;2023-12-20T10:36:31;7.80;99.90
31263;DHT22;17892;52.080;9.006;2023-12-20T10:38:58;7.80;99.90
31263;DHT22;17892;52.080;9.006;2023-12-20T10:41:29;7.80;99.90
31263;DHT22;17892;52.080;9.006;2023-12-20T10:43:59;7.80;99.90
31263;DHT22;17892;52.080;9.006;2023-12-20T10:46:29;7.80;99.90
31263;DHT22;17892;52.080;9.006;2023-12-20T10:48:57;7.80;99.90
31263;DHT22;17892;52.080;9.006;2023-12-20T10:51:23;7.80;99.90
31263;DHT22;17892;52.080;9.006;2023-12-20T10:53:53;7.80;99.90
31263;DHT22;17892;52.080;9.006;2023-12-20T10:56:21;7.80;99.90
31263;DHT22;17892;52.080;9.006;2023-12-20T10:58:49;7.80;99.90
31263;DHT22;17892;52.080;9.006;2023-12-20T11:01:16;7.80;99.90
31263;DHT22;17892;52.080;9.006;2023-12-20T11:03:51;7.80;99.90
31263;DHT22;17892;52.080;9.006;2023-12-20T11:08:51;7.90;99.90
31263;DHT22;17892;52.080;9.006;2023-12-20T11:11:35;7.90;99.90
31263;DHT22;17892;52.080;9.006;2023-12-20T11:14:15;7.90;99.90
31263;DHT22;17892;52.080;9.006;2023-12-20T11:17:06;7.90;99.90
31263;DHT22;17892;52.080;9.006;2023-12-20T11:19:38;7.90;99.90
31263;DHT22;17892;52.080;9.006;2023-12-20T11:22:08;7.90;99.90
31263;DHT22;17892;52.080;9.006;2023-12-20T11:24:34;7.90;99.90
31263;DHT22;17892;52.080;9.006;2023-12-20T11:27:03;8.00;99.90
31263;DHT22;17892;52.080;9.006;2023-12-20T11:29:33;8.00;99.90
31263;DHT22;17892;52.080;9.006;2023-12-20T11:32:27;8.00;99.90
31263;DHT22;17892;52.080;9.006;2023-12-20T11:34:51;8.10;99.90
31263;DHT22;17892;52.080;9.006;2023-12-20T11:37:19;8.10;99.90
31263;DHT22;17892;52.080;9.006;2023-12-20T11:39:45;8.10;99.90
31263;DHT22;17892;52.080;9.006;2023-12-20T11:42:11;8.20;99.90
31263;DHT22;17892;52.080;9.006;2023-12-20T11:44:37;8.20;99.90
31263;DHT22;17892;52.080;9.006;2023-12-20T11:47:04;8.30;99.90
31263;DHT22;17892;52.080;9.006;2023-12-20T11:49:29;8.30;99.90
31263;DHT22;17892;52.080;9.006;2023-12-20T11:51:56;8.30;99.90
31263;DHT22;17892;52.080;9.006;2023-12-20T11:54:22;8.30;99.90
31263;DHT22;17892;52.080;9.006;2023-12-20T11:56:48;8.40;99.90
31263;DHT22;17892;52.080;9.006;2023-12-20T11:59:14;8.40;99.90
31263;DHT22;17892;52.080;9.006;2023-12-20T12:01:47;8.40;99.90
31263;DHT22;17892;52.080;9.006;2023-12-20T12:04:14;8.40;99.90
31263;DHT22;17892;52.080;9.006;2023-12-20T12:06:40;8.40;99.90
31263;DHT22;17892;52.080;9.006;2023-12-20T12:09:06;8.50;99.90
31263;DHT22;17892;52.080;9.006;2023-12-20T12:11:32;8.50;99.90
31263;DHT22;17892;52.080;9.006;2023-12-20T12:13:59;8.50;99.90
31263;DHT22;17892;52.080;9.006;2023-12-20T12:16:25;8.50;99.90
31263;DHT22;17892;52.080;9.006;2023-12-20T12:18:57;8.60;99.90
31263;DHT22;17892;52.080;9.006;2023-12-20T12:21:24;8.60;99.90
31263;DHT22;17892;52.080;9.006;2023-12-20T12:23:50;8.60;99.90
31263;DHT22;17892;52.080;9.006;2023-12-20T12:26:16;8.60;99.90
31263;DHT22;17892;52.080;9.006;2023-12-20T12:28:42;8.50;99.90
31263;DHT22;17892;52.080;9.006;2023-12-20T12:31:09;8.50;99.90
31263;DHT22;17892;52.080;9.006;2023-12-20T12:33:40;8.40;99.90
31263;DHT22;17892;52.080;9.006;2023-12-20T12:36:07;8.40;99.90
31263;DHT22;17892;52.080;9.006;2023-12-20T12:38:33;8.40;99.90
31263;DHT22;17892;52.080;9.006;2023-12-20T12:41:00;8.30;99.90
31263;DHT22;17892;52.080;9.006;2023-12-20T12:43:26;8.30;99.90
31263;DHT22;17892;52.080;9.006;2023-12-20T12:45:52;8.20;99.90
31263;DHT22;17892;52.080;9.006;2023-12-20T12:48:18;8.20;99.90
31263;DHT22;17892;52.080;9.006;2023-12-20T12:50:45;8.20;99.90
31263;DHT22;17892;52.080;9.006;2023-12-20T12:53:11;8.10;99.90
31263;DHT22;17892;52.080;9.006;2023-12-20T12:55:37;8.10;99.90
31263;DHT22;17892;52.080;9.006;2023-12-20T12:58:03;8.10;99.90
31263;DHT22;17892;52.080;9.006;2023-12-20T13:00:29;8.10;99.90
31263;DHT22;17892;52.080;9.006;2023-12-20T13:02:54;8.10;99.90
31263;DHT22;17892;52.080;9.006;2023-12-20T13:05:20;8.00;99.90
31263;DHT22;17892;52.080;9.006;2023-12-20T13:07:46;8.00;99.90
31263;DHT22;17892;52.080;9.006;2023-12-20T13:10:12;8.00;99.90
31263;DHT22;17892;52.080;9.006;2023-12-20T13:12:37;7.90;99.90
31263;DHT22;17892;52.080;9.006;2023-12-20T13:15:03;7.80;99.90
31263;DHT22;17892;52.080;9.006;2023-12-20T13:17:29;7.70;99.90
31263;DHT22;17892;52.080;9.006;2023-12-20T13:19:55;7.60;99.90
31263;DHT22;17892;52.080;9.006;2023-12-20T13:22:21;7.50;99.90
31263;DHT22;17892;52.080;9.006;2023-12-20T13:24:46;7.40;99.90
31263;DHT22;17892;52.080;9.006;2023-12-20T13:27:12;7.40;99.90
31263;DHT22;17892;52.080;9.006;2023-12-20T13:29:38;7.30;99.90
31263;DHT22;17892;52.080;9.006;2023-12-20T13:32:04;7.30;99.90
31263;DHT22;17892;52.080;9.006;2023-12-20T13:34:29;7.20;99.90
31263;DHT22;17892;52.080;9.006;2023-12-20T13:36:55;7.20;99.90
31263;DHT22;17892;52.080;9.006;2023-12-20T13:39:22;7.20;99.90
31263;DHT22;17892;52.080;9.006;2023-12-20T13:41:47;7.20;99.90
31263;DHT22;17892;52.080;9.006;2023-12-20T13:44:13;7.10;99.90
31263;DHT22;17892;52.080;9.006;2023-12-20T13:46:41;7.20;99.90
31263;DHT22;17892;52.080;9.006;2023-12-20T13:49:06;7.20;99.90
31263;DHT22;17892;52.080;9.006;2023-12-20T13:51:32;7.20;99.90
31263;DHT22;17892;52.080;9.006;2023-12-20T13:53:58;7.20;99.90
31263;DHT22;17892;52.080;9.006;2023-12-20T13:56:25;7.20;99.90
31263;DHT22;17892;52.080;9.006;2023-12-20T13:58:51;7.20;99.90
31263;DHT22;17892;52.080;9.006;2023-12-20T14:01:17;7.20;99.90
31263;DHT22;17892;52.080;9.006;2023-12-20T14:03:43;7.30;99.90
31263;DHT22;17892;52.080;9.006;2023-12-20T14:06:08;7.10;99.90
31263;DHT22;17892;52.080;9.006;2023-12-20T14:08:34;7.30;99.90
31263;DHT22;17892;52.080;9.006;2023-12-20T14:11:01;7.30;99.90
31263;DHT22;17892;52.080;9.006;2023-12-20T14:13:27;7.30;99.90
31263;DHT22;17892;52.080;9.006;2023-12-20T14:15:52;7.30;99.90
31263;DHT22;17892;52.080;9.006;2023-12-20T14:18:19;7.30;99.90
31263;DHT22;17892;52.080;9.006;2023-12-20T14:20:45;7.30;99.90
31263;DHT22;17892;52.080;9.006;2023-12-20T14:23:12;7.30;99.90
31263;DHT22;17892;52.080;9.006;2023-12-20T14:25:41;7.40;99.90
31263;DHT22;17892;52.080;9.006;2023-12-20T14:28:07;7.30;99.90
31263;DHT22;17892;52.080;9.006;2023-12-20T14:30:32;7.30;99.90
31263;DHT22;17892;52.080;9.006;2023-12-20T14:32:58;7.30;99.90
31263;DHT22;17892;52.080;9.006;2023-12-20T14:35:24;7.30;99.90
31263;DHT22;17892;52.080;9.006;2023-12-20T14:37:50;7.30;99.90
31263;DHT22;17892;52.080;9.006;2023-12-20T14:40:16;7.30;99.90
31263;DHT22;17892;52.080;9.006;2023-12-20T14:42:45;7.30;99.90
31263;DHT22;17892;52.080;9.006;2023-12-20T14:45:11;7.30;99.90
31263;DHT22;17892;52.080;9.006;2023-12-20T14:47:38;7.30;99.90
31263;DHT22;17892;52.080;9.006;2023-12-20T14:50:05;7.30;99.90
31263;DHT22;17892;52.080;9.006;2023-12-20T14:52:32;7.30;99.90
31263;DHT22;17892;52.080;9.006;2023-12-20T14:55:02;7.30;99.90
31263;DHT22;17892;52.080;9.006;2023-12-20T14:57:29;7.20;99.90
31263;DHT22;17892;52.080;9.006;2023-12-20T14:59:55;7.20;99.90
31263;DHT22;17892;52.080;9.006;2023-12-20T15:02:21;7.20;99.90
31263;DHT22;17892;52.080;9.006;2023-12-20T15:04:47;7.20;99.90
31263;DHT22;17892;52.080;9.006;2023-12-20T15:07:13;7.20;99.90
31263;DHT22;17892;52.080;9.006;2023-12-20T15:09:38;7.20;99.90
31263;DHT22;17892;52.080;9.006;2023-12-20T15:12:04;7.20;99.90
31263;DHT22;17892;52.080;9.006;2023-12-20T15:14:30;7.10;99.90
31263;DHT22;17892;52.080;9.006;2023-12-20T15:16:56;7.20;99.90
31263;DHT22;17892;52.080;9.006;2023-12-20T15:19:22;7.20;99.90
31263;DHT22;17892;52.080;9.006;2023-12-20T15:21:48;7.10;99.90
31263;DHT22;17892;52.080;9.006;2023-12-20T15:24:14;7.10;99.90
31263;DHT22;17892;52.080;9.006;2023-12-20T15:26:46;7.20;99.90
31263;DHT22;17892;52.080;9.006;2023-12-20T15:29:12;7.10;99.90
31263;DHT22;17892;52.080;9.006;2023-12-20T15:31:44;7.10;99.90
31263;DHT22;17892;52.080;9.006;2023-12-20T15:34:10;7.10;99.90
31263;DHT22;17892;52.080;9.006;2023-12-20T15:36:37;7.10;99.90
31263;DHT22;17892;52.080;9.006;2023-12-20T15:39:04;7.10;99.90
31263;DHT22;17892;52.080;9.006;2023-12-20T15:41:29;7.10;99.90
31263;DHT22;17892;52.080;9.006;2023-12-20T15:43:55;7.10;99.90